Maple River, Iowa
Current Conditions -  °F | °C
As of 1:35 AM on Sunday 23 Nov 2014 (Local Time) from KCIN Reporting Station
Overcast Overcast  
Wind Chill: 52°   Ceiling: 700
Heat Index: 52°   Visibility: 10mi
Dew Point: 52°   Wind: 22mph
Humidity: 100%   Direction: 210°SSW
Pressure: 29.52"   Gusts: 28mph
Location:  42.08°N, 94.8598°W
Report Text: KCIN 230735Z AUTO 21019G24KT 10SM OVC007 11/11 A2952 RMK AO2
Loading
Personal Weather Stations






























Interactive Weather Map New forecast layout! Learn more

10-Day Weather Forecast

Advertisements
Track Severe Weather on mobile